Time;durP1;ratioP1;P1;durP2;ratioP2;P2;SDS_P1;SDS_P2;PMS_P1;PMS_P2;Temp;Humidity;BMP_temperature;BMP_pressure;BME280_temperature;BME280_humidity;BME280_pressure;Samples;Min_cycle;Max_cycle;Signal;HPM_P1;HPM_P2
2023/05/02 00:00:49;;;;;;;45.35;33.63;;;11.00;99.90;;;;;;5092219;27;20122;-58
2023/05/02 00:03:15;;;;;;;50.35;34.63;;;10.90;99.90;;;;;;5100630;27;20125;-58
2023/05/02 00:05:41;;;;;;;48.95;34.67;;;10.80;99.90;;;;;;5114826;27;20035;-59
2023/05/02 00:08:07;;;;;;;48.75;34.72;;;10.80;99.90;;;;;;5109255;27;20036;-58
2023/05/02 00:10:33;;;;;;;47.80;35.25;;;10.80;99.90;;;;;;5106493;27;20036;-58
2023/05/02 00:12:58;;;;;;;53.08;37.13;;;10.80;99.90;;;;;;5109093;27;20035;-58
2023/05/02 00:15:26;;;;;;;50.85;36.42;;;11.00;99.90;;;;;;5105817;27;20438;-58
2023/05/02 00:17:51;;;;;;;55.80;40.17;;;10.90;99.90;;;;;;5101680;27;20036;-59
2023/05/02 00:20:17;;;;;;;57.30;39.80;;;10.70;99.90;;;;;;5098684;27;20044;-59
2023/05/02 00:22:43;;;;;;;62.83;41.83;;;10.70;99.90;;;;;;5105831;27;20427;-58
2023/05/02 00:25:09;;;;;;;60.28;40.72;;;10.50;99.90;;;;;;5099586;27;20035;-59
2023/05/02 00:27:34;;;;;;;66.25;43.30;;;10.60;99.90;;;;;;5115604;27;20516;-58
2023/05/02 00:30:00;;;;;;;67.47;42.80;;;10.50;99.90;;;;;;5112013;27;20462;-59
2023/05/02 00:32:27;;;;;;;67.80;43.28;;;10.50;99.90;;;;;;5104107;27;20130;-58
2023/05/02 00:34:53;;;;;;;72.90;46.30;;;10.50;99.90;;;;;;5102617;27;20657;-58
2023/05/02 00:37:19;;;;;;;72.03;45.83;;;10.50;99.90;;;;;;5101298;27;20036;-58
2023/05/02 00:39:44;;;;;;;70.88;45.10;;;10.30;99.90;;;;;;5119118;27;20798;-59
2023/05/02 00:42:10;;;;;;;75.78;47.40;;;10.50;99.90;;;;;;5101765;27;20494;-58
2023/05/02 00:44:36;;;;;;;72.93;45.88;;;10.40;99.90;;;;;;5110352;27;20111;-59
2023/05/02 00:47:02;;;;;;;71.55;44.53;;;10.70;99.90;;;;;;5111800;27;20032;-59
2023/05/02 00:49:30;;;;;;;73.93;47.80;;;10.70;99.90;;;;;;5110861;27;20031;-58
2023/05/02 00:51:55;;;;;;;72.05;46.47;;;10.80;99.90;;;;;;5109586;27;20542;-59
2023/05/02 00:54:21;;;;;;;81.43;49.05;;;10.70;99.90;;;;;;5100651;27;20040;-58
2023/05/02 00:56:46;;;;;;;78.47;47.40;;;10.70;99.90;;;;;;5109107;27;20540;-58
2023/05/02 00:59:13;;;;;;;77.28;47.17;;;10.50;99.90;;;;;;5103121;27;20039;-58
2023/05/02 01:01:54;;;;;;;79.93;47.92;;;10.60;99.90;;;;;;5101053;28;20228;-59
2023/05/02 01:04:46;;;;;;;73.38;46.92;;;10.60;99.90;;;;;;5098493;27;20282;-58
2023/05/02 01:07:36;;;;;;;80.45;48.25;;;10.60;99.90;;;;;;5084654;27;20039;-59
2023/05/02 01:10:38;;;;;;;81.38;45.88;;;10.70;99.90;;;;;;5106697;27;20114;-58
2023/05/02 01:13:21;;;;;;;72.80;44.35;;;10.80;99.90;;;;;;5098978;27;20509;-58
2023/05/02 01:15:50;;;;;;;74.00;42.60;;;10.60;99.90;;;;;;5103101;27;20485;-59
2023/05/02 01:18:19;;;;;;;75.10;44.08;;;10.60;99.90;;;;;;5104908;27;20031;-58
2023/05/02 01:20:49;;;;;;;74.40;43.83;;;10.50;99.90;;;;;;5101035;27;20034;-58
2023/05/02 01:23:31;;;;;;;69.53;42.72;;;10.50;99.90;;;;;;5102256;27;20386;-58
2023/05/02 01:26:05;;;;;;;72.15;42.60;;;10.50;99.90;;;;;;5101453;28;20096;-58
2023/05/02 01:28:58;;;;;;;72.38;41.05;;;10.60;99.90;;;;;;5112680;27;20092;-58
2023/05/02 01:31:28;;;;;;;70.90;41.50;;;10.90;99.90;;;;;;5101906;27;20820;-58
2023/05/02 01:33:55;;;;;;;69.75;41.95;;;11.00;99.90;;;;;;5101611;27;20040;-59
2023/05/02 01:36:25;;;;;;;66.57;40.30;;;11.30;99.90;;;;;;5100190;28;20471;-58
2023/05/02 01:38:53;;;;;;;63.33;40.53;;;11.40;99.90;;;;;;5103506;27;20084;-58
2023/05/02 01:41:19;;;;;;;68.10;40.15;;;11.10;99.90;;;;;;5124913;27;20035;-58
2023/05/02 01:43:47;;;;;;;67.53;39.97;;;11.10;99.90;;;;;;5109642;27;20039;-58
2023/05/02 01:46:14;;;;;;;66.53;40.13;;;11.20;99.90;;;;;;5100634;27;20529;-59
2023/05/02 01:48:43;;;;;;;61.88;37.47;;;11.20;99.90;;;;;;5110389;27;20479;-58
2023/05/02 01:51:11;;;;;;;64.15;39.30;;;11.00;99.90;;;;;;5110453;27;20038;-59
2023/05/02 01:53:38;;;;;;;64.93;38.03;;;11.20;99.90;;;;;;5111419;27;20070;-58
2023/05/02 01:56:05;;;;;;;58.53;36.08;;;11.30;99.90;;;;;;5106236;27;20418;-59
2023/05/02 01:58:32;;;;;;;62.22;37.47;;;11.20;99.90;;;;;;5104506;27;20062;-59
2023/05/02 02:00:59;;;;;;;61.35;36.72;;;11.00;99.90;;;;;;5105435;27;20568;-59
2023/05/02 02:03:28;;;;;;;60.05;35.65;;;11.20;99.90;;;;;;5102845;27;20403;-58
2023/05/02 02:05:55;;;;;;;60.88;36.67;;;11.40;99.90;;;;;;5105800;27;20039;-58
2023/05/02 02:08:21;;;;;;;61.13;37.08;;;11.10;99.90;;;;;;5098878;28;20043;-59
2023/05/02 02:10:59;;;;;;;58.38;35.55;;;11.10;99.90;;;;;;5107506;27;20034;-59
2023/05/02 02:13:36;;;;;;;58.05;35.17;;;11.30;99.90;;;;;;5099076;27;20539;-59
2023/05/02 02:16:04;;;;;;;59.38;35.60;;;11.20;99.90;;;;;;5095211;27;20039;-59
2023/05/02 02:18:35;;;;;;;62.22;36.50;;;11.20;99.90;;;;;;5107782;27;20130;-58
2023/05/02 02:21:01;;;;;;;61.22;36.92;;;11.20;99.90;;;;;;5111214;27;20034;-59
2023/05/02 02:23:28;;;;;;;59.38;36.03;;;11.10;99.90;;;;;;5098287;27;20112;-59
2023/05/02 02:25:56;;;;;;;61.13;37.35;;;11.20;99.90;;;;;;5101363;27;20063;-58
2023/05/02 02:28:21;;;;;;;60.25;36.67;;;11.10;99.90;;;;;;5131876;27;20103;-59
2023/05/02 02:30:47;;;;;;;61.75;35.42;;;11.20;99.90;;;;;;5114468;27;20159;-58
2023/05/02 02:33:13;;;;;;;62.88;36.30;;;11.30;99.90;;;;;;5111197;27;20053;-59
2023/05/02 02:35:47;;;;;;;56.25;35.17;;;11.20;99.90;;;;;;5106615;27;20113;-58
2023/05/02 02:38:41;;;;;;;62.58;35.78;;;11.30;99.90;;;;;;5105584;27;20039;-58
2023/05/02 02:41:33;;;;;;;59.55;34.88;;;11.40;99.90;;;;;;5092238;28;20036;-59
2023/05/02 02:44:27;;;;;;;57.55;34.53;;;11.30;99.90;;;;;;5082468;28;20043;-59
2023/05/02 02:47:02;;;;;;;56.75;33.65;;;11.30;99.90;;;;;;5118017;27;20054;-59
2023/05/02 02:49:48;;;;;;;59.92;33.13;;;11.20;99.90;;;;;;5099286;28;20070;-58
2023/05/02 02:52:30;;;;;;;54.40;31.77;;;11.30;99.90;;;;;;5107058;27;20035;-58
2023/05/02 02:55:11;;;;;;;52.22;30.35;;;11.20;99.90;;;;;;5103733;28;20478;-59
2023/05/02 02:57:54;;;;;;;55.28;31.60;;;11.20;99.90;;;;;;5097525;28;20028;-58
2023/05/02 03:00:23;;;;;;;51.35;29.17;;;11.20;99.90;;;;;;5107752;28;20379;-58
2023/05/02 03:02:52;;;;;;;48.30;28.55;;;11.00;99.90;;;;;;5108961;28;20047;-59
2023/05/02 03:05:20;;;;;;;46.80;27.98;;;10.90;99.90;;;;;;5108510;28;20152;-58
2023/05/02 03:07:45;;;;;;;46.55;26.70;;;11.00;99.90;;;;;;5109030;28;20031;-58
2023/05/02 03:10:11;;;;;;;45.47;27.23;;;11.10;99.90;;;;;;5113420;28;20038;-58
2023/05/02 03:12:38;;;;;;;44.38;26.30;;;11.10;99.90;;;;;;5110769;28;20035;-58
2023/05/02 03:15:41;;;;;;;42.55;25.73;;;11.10;99.90;;;;;;5111680;27;20636;-59
2023/05/02 03:18:07;;;;;;;39.08;25.13;;;11.20;99.90;;;;;;5100540;28;20068;-59
2023/05/02 03:20:32;;;;;;;46.42;26.98;;;11.50;99.90;;;;;;5111158;28;20067;-59
2023/05/02 03:22:58;;;;;;;48.55;27.95;;;11.60;99.90;;;;;;5100237;28;20436;-59
2023/05/02 03:25:23;;;;;;;44.97;27.63;;;11.60;99.90;;;;;;5100938;28;20036;-59
2023/05/02 03:27:49;;;;;;;44.40;27.25;;;11.70;99.90;;;;;;5103378;28;20035;-59
2023/05/02 03:30:14;;;;;;;48.90;29.92;;;11.80;99.90;;;;;;5113291;28;20066;-59
2023/05/02 03:32:40;;;;;;;47.67;28.77;;;11.80;99.90;;;;;;5100503;28;20035;-58
2023/05/02 03:35:06;;;;;;;46.80;26.95;;;11.60;99.90;;;;;;5109707;28;20143;-59
2023/05/02 03:37:33;;;;;;;47.40;27.98;;;11.60;99.90;;;;;;5100076;28;20063;-59
2023/05/02 03:39:59;;;;;;;47.70;28.17;;;11.60;99.90;;;;;;5111231;28;20032;-59
2023/05/02 03:42:24;;;;;;;46.95;28.70;;;11.50;99.90;;;;;;5104426;28;20039;-59
2023/05/02 03:44:53;;;;;;;47.15;27.98;;;11.70;99.90;;;;;;5108158;28;20161;-59
2023/05/02 03:47:19;;;;;;;44.38;26.15;;;11.80;99.90;;;;;;5099436;28;20307;-60
2023/05/02 03:49:45;;;;;;;44.75;27.52;;;11.70;99.90;;;;;;5105271;28;20062;-59
2023/05/02 03:52:11;;;;;;;41.83;26.50;;;11.90;99.90;;;;;;5109159;28;20069;-59
2023/05/02 03:54:37;;;;;;;41.35;24.52;;;11.80;99.90;;;;;;5096466;28;20471;-58
2023/05/02 03:57:03;;;;;;;40.88;23.15;;;11.90;99.90;;;;;;5100691;28;20414;-58
2023/05/02 03:59:32;;;;;;;36.58;23.63;;;11.70;99.90;;;;;;5102052;28;20050;-59
2023/05/02 04:01:58;;;;;;;39.35;22.52;;;11.50;99.90;;;;;;5106433;28;20116;-59
2023/05/02 04:04:24;;;;;;;35.13;22.50;;;11.50;99.90;;;;;;5098676;28;20726;-58
2023/05/02 04:06:50;;;;;;;32.53;20.33;;;11.60;99.90;;;;;;5098428;28;20702;-59
2023/05/02 04:09:15;;;;;;;36.53;21.02;;;11.50;99.90;;;;;;5101737;27;20055;-59
2023/05/02 04:11:41;;;;;;;30.70;19.30;;;11.60;99.90;;;;;;5110274;27;20466;-58
2023/05/02 04:14:06;;;;;;;33.60;20.33;;;11.40;99.90;;;;;;5102620;28;20150;-59
2023/05/02 04:16:32;;;;;;;34.05;19.83;;;11.20;99.90;;;;;;5116959;27;20046;-58
2023/05/02 04:18:58;;;;;;;36.60;20.38;;;11.10;99.90;;;;;;5102478;27;20135;-58
2023/05/02 04:21:24;;;;;;;36.10;20.25;;;11.20;99.90;;;;;;5099776;27;20027;-58
2023/05/02 04:23:49;;;;;;;32.67;20.10;;;11.10;99.90;;;;;;5107064;27;20043;-58
2023/05/02 04:26:15;;;;;;;33.17;20.40;;;11.20;99.90;;;;;;5108825;27;20043;-58
2023/05/02 04:28:41;;;;;;;36.38;21.42;;;11.20;99.90;;;;;;5107250;27;20044;-58
2023/05/02 04:31:07;;;;;;;45.20;24.95;;;11.30;99.90;;;;;;5106917;27;20191;-58
2023/05/02 04:33:32;;;;;;;43.60;26.27;;;10.90;99.90;;;;;;5100940;27;20128;-58
2023/05/02 04:35:58;;;;;;;48.63;26.75;;;11.00;99.90;;;;;;5107058;27;20488;-58
2023/05/02 04:38:23;;;;;;;48.63;26.48;;;11.10;99.90;;;;;;5086127;27;20155;-59
2023/05/02 04:40:51;;;;;;;51.00;28.38;;;11.00;99.90;;;;;;5107514;27;20142;-59
2023/05/02 04:43:16;;;;;;;50.55;27.13;;;10.90;99.90;;;;;;5095460;27;20031;-58
2023/05/02 04:45:42;;;;;;;48.75;28.83;;;11.00;99.90;;;;;;5106449;27;20054;-59
2023/05/02 04:48:07;;;;;;;47.83;27.83;;;10.90;99.90;;;;;;5110209;27;20035;-58
2023/05/02 04:50:33;;;;;;;49.90;28.05;;;10.90;99.90;;;;;;5108697;27;20050;-58
2023/05/02 04:52:58;;;;;;;53.63;29.52;;;11.10;99.90;;;;;;5105461;27;20041;-58
2023/05/02 04:55:24;;;;;;;55.72;31.10;;;11.00;99.90;;;;;;5102732;27;20123;-59
2023/05/02 04:57:50;;;;;;;53.22;29.02;;;10.90;99.90;;;;;;5091517;27;20083;-58
2023/05/02 05:00:16;;;;;;;52.13;30.08;;;10.90;99.90;;;;;;5111991;27;20482;-58
2023/05/02 05:02:42;;;;;;;55.50;30.77;;;10.80;99.90;;;;;;5109807;27;20031;-59
2023/05/02 05:05:07;;;;;;;57.30;30.17;;;10.90;99.90;;;;;;5104917;28;20086;-58
2023/05/02 05:07:33;;;;;;;52.15;30.15;;;10.80;99.90;;;;;;5108908;27;20054;-58
2023/05/02 05:09:59;;;;;;;50.95;28.25;;;10.80;99.90;;;;;;5109340;27;20036;-58
2023/05/02 05:12:24;;;;;;;32.85;18.55;;;10.90;99.90;;;;;;5109608;27;20479;-57
2023/05/02 05:14:50;;;;;;;32.10;17.67;;;10.50;99.90;;;;;;5099932;27;20032;-57
2023/05/02 05:17:16;;;;;;;32.10;18.52;;;10.50;99.90;;;;;;5096456;27;20066;-57
2023/05/02 05:19:41;;;;;;;28.92;15.88;;;10.70;99.90;;;;;;5112424;27;20081;-58
2023/05/02 05:22:07;;;;;;;20.45;12.35;;;10.60;99.90;;;;;;5107742;27;20067;-58
2023/05/02 05:24:33;;;;;;;22.92;12.25;;;10.30;99.90;;;;;;5118113;27;20063;-58
2023/05/02 05:26:58;;;;;;;22.10;10.88;;;10.30;99.90;;;;;;5102867;27;20504;-57
2023/05/02 05:29:24;;;;;;;18.35;10.00;;;10.30;99.90;;;;;;5106997;27;20047;-58
2023/05/02 05:31:49;;;;;;;17.50;9.73;;;10.50;99.90;;;;;;5102152;27;20601;-58
2023/05/02 05:34:15;;;;;;;15.77;8.95;;;10.50;99.90;;;;;;5103618;27;20106;-58
2023/05/02 05:36:41;;;;;;;18.05;9.27;;;10.40;99.90;;;;;;5099553;27;20055;-58
2023/05/02 05:39:06;;;;;;;18.15;8.68;;;10.40;99.90;;;;;;5106741;27;20194;-58
2023/05/02 05:41:33;;;;;;;17.83;8.55;;;10.50;99.90;;;;;;5104438;27;20590;-58
2023/05/02 05:43:58;;;;;;;18.05;7.55;;;10.40;99.90;;;;;;5104607;27;20458;-58
2023/05/02 05:46:24;;;;;;;15.05;8.68;;;10.40;99.90;;;;;;5131004;27;20118;-58
2023/05/02 05:48:49;;;;;;;13.88;6.90;;;10.40;99.90;;;;;;5099235;27;20031;-57
2023/05/02 05:51:15;;;;;;;18.88;7.85;;;10.40;99.90;;;;;;5111396;27;20617;-58
2023/05/02 05:53:40;;;;;;;15.43;6.90;;;10.30;99.90;;;;;;5097200;27;20439;-57
2023/05/02 05:56:10;;;;;;;15.57;7.47;;;10.50;99.90;;;;;;5108620;27;20328;-58
2023/05/02 05:58:36;;;;;;;14.23;7.13;;;10.60;99.90;;;;;;5105943;27;20040;-58
2023/05/02 06:01:02;;;;;;;14.60;6.82;;;10.90;99.90;;;;;;5098464;28;20579;-58
2023/05/02 06:03:27;;;;;;;12.10;6.35;;;10.90;99.90;;;;;;5103132;28;20055;-58
2023/05/02 06:05:53;;;;;;;12.85;6.00;;;10.90;99.90;;;;;;5079128;28;20099;-58
2023/05/02 06:08:20;;;;;;;14.98;6.00;;;10.80;99.90;;;;;;5100528;27;20120;-58
2023/05/02 06:10:46;;;;;;;12.55;5.63;;;10.90;99.90;;;;;;5104964;27;20027;-58
2023/05/02 06:13:11;;;;;;;13.23;4.80;;;10.90;99.90;;;;;;5097409;28;20620;-57
2023/05/02 06:15:37;;;;;;;11.48;5.28;;;10.70;99.90;;;;;;5097548;28;20203;-58
2023/05/02 06:18:02;;;;;;;11.15;4.65;;;10.70;99.90;;;;;;5085046;27;20123;-58
2023/05/02 06:20:28;;;;;;;12.90;4.95;;;10.70;99.90;;;;;;5110627;27;20042;-58
2023/05/02 06:22:53;;;;;;;15.45;4.45;;;10.60;99.90;;;;;;5095572;27;20035;-58
2023/05/02 06:25:19;;;;;;;12.07;4.30;;;10.50;99.90;;;;;;5113662;27;20031;-58
2023/05/02 06:27:44;;;;;;;10.27;4.47;;;10.50;99.90;;;;;;5097625;28;20039;-58
2023/05/02 06:30:10;;;;;;;14.98;4.50;;;10.60;99.90;;;;;;5101858;28;20050;-57
2023/05/02 06:32:36;;;;;;;14.00;4.57;;;10.70;99.90;;;;;;5102063;28;20388;-58
2023/05/02 06:35:01;;;;;;;16.35;4.88;;;10.80;99.90;;;;;;5101348;27;20119;-59
2023/05/02 06:37:32;;;;;;;13.75;4.90;;;11.10;99.90;;;;;;5102618;27;20469;-58
2023/05/02 06:39:58;;;;;;;12.40;5.15;;;11.20;99.90;;;;;;5098433;27;20031;-57
2023/05/02 06:42:23;;;;;;;18.30;5.25;;;11.10;99.90;;;;;;5102412;27;20035;-57
2023/05/02 06:44:50;;;;;;;12.25;4.70;;;10.90;99.90;;;;;;5112531;27;20107;-58
2023/05/02 06:47:15;;;;;;;15.45;4.88;;;11.10;99.90;;;;;;5110296;28;20498;-58
2023/05/02 06:49:41;;;;;;;13.77;4.70;;;11.40;99.90;;;;;;5100219;28;20088;-58
2023/05/02 06:52:07;;;;;;;11.48;4.90;;;11.50;99.90;;;;;;5101603;28;20514;-58
2023/05/02 06:54:32;;;;;;;11.85;4.57;;;11.60;99.90;;;;;;5101403;27;20565;-58
2023/05/02 06:56:58;;;;;;;8.32;4.07;;;11.30;99.90;;;;;;5100093;28;20399;-59
2023/05/02 06:59:24;;;;;;;13.13;4.80;;;11.20;99.90;;;;;;5110045;28;20027;-58
2023/05/02 07:01:49;;;;;;;12.25;4.50;;;11.40;99.90;;;;;;5115491;28;20030;-58
2023/05/02 07:04:15;;;;;;;15.20;4.50;;;11.20;99.90;;;;;;5101727;28;20091;-58
2023/05/02 07:06:41;;;;;;;6.20;2.42;;;11.30;99.90;;;;;;5105111;28;20028;-58
2023/05/02 07:09:06;;;;;;;9.07;2.50;;;10.80;99.90;;;;;;5107103;28;20059;-58
2023/05/02 07:11:32;;;;;;;10.23;2.10;;;10.60;99.90;;;;;;5101443;28;20039;-58
2023/05/02 07:13:58;;;;;;;9.27;2.35;;;10.60;99.90;;;;;;5102678;28;20051;-58
2023/05/02 07:16:23;;;;;;;9.50;2.65;;;10.60;99.90;;;;;;5108356;28;20370;-58
2023/05/02 07:18:49;;;;;;;8.50;2.60;;;10.40;99.90;;;;;;5086172;28;20042;-58
2023/05/02 07:21:15;;;;;;;7.97;2.38;;;10.50;99.90;;;;;;5095863;27;20031;-58
2023/05/02 07:23:40;;;;;;;7.38;2.53;;;10.70;99.90;;;;;;5092123;27;20035;-58
2023/05/02 07:26:06;;;;;;;11.15;2.85;;;10.60;99.90;;;;;;5109943;27;20035;-59
2023/05/02 07:28:31;;;;;;;9.18;2.78;;;10.70;99.90;;;;;;5106638;28;20127;-58
2023/05/02 07:30:57;;;;;;;9.40;3.00;;;10.80;99.90;;;;;;5101421;28;20139;-58
2023/05/02 07:33:23;;;;;;;7.68;2.40;;;10.80;99.90;;;;;;5088808;28;20098;-58
2023/05/02 07:35:49;;;;;;;13.15;2.50;;;11.00;99.90;;;;;;5108483;28;20031;-59
2023/05/02 07:38:15;;;;;;;11.07;2.60;;;10.80;99.90;;;;;;5101742;28;20451;-58
2023/05/02 07:40:41;;;;;;;13.30;3.58;;;10.80;99.90;;;;;;5113062;28;20035;-58
2023/05/02 07:43:06;;;;;;;7.03;2.83;;;10.80;99.90;;;;;;5103532;28;20095;-57
2023/05/02 07:45:32;;;;;;;14.65;2.80;;;10.80;99.90;;;;;;5115381;27;20574;-58
2023/05/02 07:47:58;;;;;;;12.60;3.20;;;10.60;99.90;;;;;;5111562;27;20024;-58
2023/05/02 07:50:24;;;;;;;8.32;3.20;;;10.80;99.90;;;;;;5114409;27;20556;-58
2023/05/02 07:52:49;;;;;;;6.35;2.72;;;11.00;99.90;;;;;;5120931;27;20049;-58
2023/05/02 07:55:15;;;;;;;7.97;3.15;;;10.90;99.90;;;;;;5108428;27;20738;-58
2023/05/02 07:57:40;;;;;;;10.63;3.13;;;10.90;99.90;;;;;;5102527;27;20035;-58
2023/05/02 08:00:08;;;;;;;10.25;3.35;;;10.80;99.90;;;;;;5104237;27;20085;-58
2023/05/02 08:02:35;;;;;;;9.38;3.58;;;10.70;99.90;;;;;;5107247;27;20851;-58
2023/05/02 08:05:01;;;;;;;10.70;3.25;;;10.60;99.90;;;;;;5102395;27;20032;-58
2023/05/02 08:07:27;;;;;;;12.00;4.00;;;10.40;99.90;;;;;;5106193;27;20052;-59
2023/05/02 08:09:53;;;;;;;12.00;3.85;;;10.40;99.90;;;;;;5108016;27;20070;-57
2023/05/02 08:12:18;;;;;;;15.55;3.92;;;10.30;99.90;;;;;;5114804;27;20047;-57
2023/05/02 08:14:44;;;;;;;12.73;3.50;;;10.40;99.90;;;;;;5107033;27;20024;-57
2023/05/02 08:17:09;;;;;;;10.75;3.47;;;10.50;99.90;;;;;;5093905;28;20031;-58
2023/05/02 08:19:35;;;;;;;12.52;3.33;;;10.70;99.90;;;;;;5094318;27;20051;-57
2023/05/02 08:22:00;;;;;;;12.25;3.38;;;10.60;99.90;;;;;;5095815;27;20060;-58
2023/05/02 08:24:26;;;;;;;10.27;3.05;;;10.80;99.90;;;;;;5107344;27;20073;-58
2023/05/02 08:26:52;;;;;;;12.50;3.00;;;10.70;99.90;;;;;;5104895;28;20066;-57
2023/05/02 08:29:17;;;;;;;9.25;2.75;;;10.80;99.90;;;;;;5105015;28;20060;-58
2023/05/02 08:31:43;;;;;;;5.68;2.13;;;10.70;99.90;;;;;;5106746;27;20077;-57
2023/05/02 08:34:09;;;;;;;9.15;2.50;;;10.70;99.90;;;;;;5106149;27;20101;-57
2023/05/02 08:36:36;;;;;;;13.18;2.85;;;10.90;99.90;;;;;;5106385;27;20024;-58
2023/05/02 08:39:02;;;;;;;8.35;2.50;;;10.70;99.90;;;;;;5114322;27;20115;-58
2023/05/02 08:41:29;;;;;;;9.40;3.10;;;10.60;99.90;;;;;;5103194;27;20024;-57
2023/05/02 08:43:55;;;;;;;13.15;2.67;;;10.70;99.90;;;;;;5112206;27;20123;-57
2023/05/02 08:46:22;;;;;;;11.05;2.88;;;10.60;99.90;;;;;;5110109;27;21250;-58
2023/05/02 08:48:49;;;;;;;9.50;3.25;;;10.90;99.90;;;;;;5111265;27;20805;-58
2023/05/02 08:51:16;;;;;;;12.40;4.13;;;10.80;99.90;;;;;;5104851;27;20059;-57
2023/05/02 08:53:41;;;;;;;8.93;3.97;;;10.80;99.90;;;;;;5110896;27;20512;-57
2023/05/02 08:56:08;;;;;;;9.50;4.40;;;10.90;99.90;;;;;;5107032;27;20040;-57
2023/05/02 08:58:36;;;;;;;13.73;4.00;;;10.90;99.90;;;;;;5113016;27;20088;-58
2023/05/02 09:01:09;;;;;;;12.60;4.03;;;11.00;99.90;;;;;;5109709;27;20026;-58
2023/05/02 09:03:36;;;;;;;10.63;3.42;;;11.40;99.90;;;;;;5110164;27;20041;-57
2023/05/02 09:06:11;;;;;;;11.90;3.33;;;11.40;99.90;;;;;;5101896;27;20129;-58
2023/05/02 09:08:37;;;;;;;12.68;3.30;;;11.30;99.90;;;;;;5101951;27;20041;-57
2023/05/02 09:11:03;;;;;;;12.55;3.72;;;11.40;99.90;;;;;;5101373;27;20046;-57
2023/05/02 09:13:30;;;;;;;13.60;3.33;;;11.30;99.90;;;;;;5096341;27;20054;-57
2023/05/02 09:16:01;;;;;;;11.27;3.17;;;11.40;99.90;;;;;;5106966;27;20084;-57
2023/05/02 09:18:32;;;;;;;10.60;3.58;;;11.40;99.90;;;;;;5106990;27;20484;-57
2023/05/02 09:20:59;;;;;;;9.27;3.30;;;11.70;99.90;;;;;;5110391;27;20108;-57
2023/05/02 09:23:35;;;;;;;11.15;3.53;;;11.90;99.90;;;;;;5110868;27;20031;-58
2023/05/02 09:26:01;;;;;;;12.23;3.10;;;11.90;99.90;;;;;;5094209;27;20085;-57
2023/05/02 09:28:50;;;;;;;8.80;3.08;;;12.10;99.90;;;;;;5102364;27;20035;-57
2023/05/02 09:31:21;;;;;;;10.82;2.90;;;12.00;99.90;;;;;;5091451;27;20414;-57
2023/05/02 09:33:47;;;;;;;8.50;3.13;;;11.70;99.90;;;;;;5102071;27;20040;-57
2023/05/02 09:36:17;;;;;;;10.85;3.00;;;11.70;99.90;;;;;;5109059;27;20039;-57
2023/05/02 09:38:44;;;;;;;13.20;2.92;;;11.50;99.90;;;;;;5105561;27;20371;-57
2023/05/02 09:41:10;;;;;;;10.40;3.05;;;11.70;99.90;;;;;;5105418;27;20434;-57
2023/05/02 09:43:36;;;;;;;10.70;3.08;;;12.00;99.90;;;;;;5103393;27;20551;-57
2023/05/02 09:46:03;;;;;;;11.07;3.03;;;12.00;99.90;;;;;;5112312;27;20054;-56
2023/05/02 09:48:30;;;;;;;9.02;2.83;;;12.10;99.90;;;;;;5098264;27;20510;-57
2023/05/02 09:50:56;;;;;;;10.90;3.33;;;12.20;99.90;;;;;;5109564;27;20036;-57
2023/05/02 09:53:26;;;;;;;12.38;3.30;;;12.20;99.90;;;;;;5110075;27;20039;-57
2023/05/02 09:56:03;;;;;;;9.02;3.08;;;12.20;99.90;;;;;;5102311;27;20051;-57
2023/05/02 09:58:32;;;;;;;14.18;3.13;;;12.00;99.90;;;;;;5093607;27;20040;-57
2023/05/02 10:00:58;;;;;;;15.93;3.88;;;11.70;99.90;;;;;;5109008;27;20067;-57
2023/05/02 10:03:26;;;;;;;12.43;3.53;;;11.40;99.90;;;;;;5120121;27;20136;-57
2023/05/02 10:05:55;;;;;;;9.30;3.30;;;11.40;99.90;;;;;;5105390;27;20027;-57
2023/05/02 10:08:23;;;;;;;11.75;3.38;;;11.40;99.90;;;;;;5109740;27;20548;-57
2023/05/02 10:10:54;;;;;;;12.77;3.58;;;11.40;99.90;;;;;;5119420;27;20385;-57
2023/05/02 10:13:25;;;;;;;15.07;3.60;;;11.20;99.90;;;;;;5089553;28;20112;-57
2023/05/02 10:16:01;;;;;;;9.63;2.70;;;11.30;99.90;;;;;;5095640;28;20570;-57
2023/05/02 10:19:01;;;;;;;10.38;3.25;;;11.60;99.90;;;;;;5098289;27;20128;-57
2023/05/02 10:21:28;;;;;;;7.28;2.65;;;11.40;99.90;;;;;;5093663;27;20547;-57
2023/05/02 10:23:54;;;;;;;9.15;3.35;;;11.50;99.90;;;;;;5098916;28;20039;-58
2023/05/02 10:26:22;;;;;;;8.18;3.03;;;11.50;99.90;;;;;;5102461;27;20076;-57
2023/05/02 10:28:49;;;;;;;14.00;3.10;;;11.70;99.90;;;;;;5092125;27;20059;-57
2023/05/02 10:31:16;;;;;;;13.68;3.40;;;12.10;99.90;;;;;;5105721;27;20036;-57
2023/05/02 10:33:42;;;;;;;10.55;3.40;;;12.00;99.90;;;;;;5103074;27;20106;-57
2023/05/02 10:36:13;;;;;;;9.60;3.00;;;11.90;99.90;;;;;;5095833;27;20138;-57
2023/05/02 10:38:39;;;;;;;10.40;2.97;;;11.90;99.90;;;;;;5084817;27;20035;-58
2023/05/02 10:41:14;;;;;;;16.52;2.42;;;11.80;99.90;;;;;;5097768;27;20036;-58
2023/05/02 10:43:44;;;;;;;9.20;2.50;;;11.80;99.90;;;;;;5101684;27;20138;-57
2023/05/02 10:46:30;;;;;;;10.23;2.83;;;11.80;99.90;;;;;;5098931;27;20202;-58
2023/05/02 10:49:04;;;;;;;9.32;2.97;;;12.30;99.90;;;;;;5081855;27;20036;-58
2023/05/02 10:51:31;;;;;;;8.95;2.90;;;12.40;99.90;;;;;;5098706;28;20051;-57
2023/05/02 10:54:19;;;;;;;8.35;3.00;;;12.30;99.90;;;;;;5089043;28;20499;-57
2023/05/02 10:57:04;;;;;;;10.45;2.70;;;12.50;99.90;;;;;;5091021;28;20038;-58
2023/05/02 10:59:41;;;;;;;9.00;3.08;;;12.60;99.90;;;;;;5100528;28;20113;-57
2023/05/02 11:02:26;;;;;;;12.48;3.10;;;12.20;99.90;;;;;;5096023;28;20067;-57
2023/05/02 11:04:59;;;;;;;10.50;2.97;;;12.50;99.90;;;;;;5093270;28;20028;-57
2023/05/02 11:07:24;;;;;;;9.13;2.67;;;12.50;99.90;;;;;;5091983;28;20094;-57
2023/05/02 11:09:50;;;;;;;14.85;2.83;;;12.20;99.90;;;;;;5093159;27;20435;-57
2023/05/02 11:12:47;;;;;;;7.78;2.65;;;12.20;99.90;;;;;;5090255;28;20035;-58
2023/05/02 11:15:33;;;;;;;8.45;2.55;;;12.40;99.90;;;;;;5092021;28;20036;-58
2023/05/02 11:18:00;;;;;;;8.90;3.00;;;12.80;99.90;;;;;;5088741;28;20627;-57
2023/05/02 11:20:26;;;;;;;9.32;2.83;;;12.70;99.90;;;;;;5106940;27;20151;-58
2023/05/02 11:22:53;;;;;;;6.60;2.50;;;12.80;99.90;;;;;;5090785;27;20070;-57
2023/05/02 11:25:34;;;;;;;9.00;2.25;;;13.10;99.90;;;;;;5093852;27;20036;-58
2023/05/02 11:28:00;;;;;;;9.70;2.40;;;13.00;99.90;;;;;;5081462;28;20444;-58
2023/05/02 11:30:40;;;;;;;12.52;3.10;;;12.80;99.90;;;;;;5087094;28;20043;-57
2023/05/02 11:33:06;;;;;;;6.82;2.30;;;12.60;99.90;;;;;;5099331;28;20040;-57
2023/05/02 11:35:34;;;;;;;11.80;2.80;;;12.60;99.90;;;;;;5100172;27;20058;-58
2023/05/02 11:38:04;;;;;;;8.38;2.70;;;12.30;99.90;;;;;;5104189;27;20078;-57
2023/05/02 11:40:31;;;;;;;8.48;2.50;;;12.30;99.90;;;;;;5100155;27;20567;-58
2023/05/02 11:42:58;;;;;;;21.15;11.60;;;12.30;99.90;;;;;;5107579;27;20040;-57
2023/05/02 11:45:35;;;;;;;13.15;4.72;;;12.40;99.90;;;;;;5100819;27;20050;-58
2023/05/02 11:48:05;;;;;;;9.30;2.35;;;12.40;99.90;;;;;;5107615;27;20032;-58
2023/05/02 11:50:40;;;;;;;7.57;2.30;;;12.30;99.90;;;;;;5107912;27;20032;-58
2023/05/02 11:53:10;;;;;;;7.10;2.75;;;12.40;99.90;;;;;;5102938;27;20025;-58
2023/05/02 11:55:36;;;;;;;7.13;2.30;;;12.40;99.90;;;;;;5090025;27;20110;-58
2023/05/02 11:58:02;;;;;;;7.43;2.28;;;12.10;99.90;;;;;;5106651;27;20059;-57
2023/05/02 12:00:27;;;;;;;6.15;2.35;;;12.30;99.90;;;;;;5111194;27;20058;-58
2023/05/02 12:02:53;;;;;;;5.13;2.20;;;12.20;99.90;;;;;;5089041;27;20048;-57
2023/05/02 12:05:30;;;;;;;7.93;2.28;;;12.40;99.90;;;;;;5101251;27;20047;-57
2023/05/02 12:07:55;;;;;;;8.07;2.50;;;12.70;99.90;;;;;;5101260;27;20123;-58
2023/05/02 12:10:21;;;;;;;6.15;2.22;;;13.40;99.90;;;;;;5106317;27;20043;-58
2023/05/02 12:12:47;;;;;;;11.23;2.40;;;13.60;99.90;;;;;;5085620;28;20039;-57
2023/05/02 12:15:12;;;;;;;5.07;2.30;;;13.20;99.90;;;;;;5107198;27;20058;-57
2023/05/02 12:17:41;;;;;;;4.43;2.00;;;12.90;99.90;;;;;;5104481;27;20119;-57
2023/05/02 12:20:11;;;;;;;9.82;3.40;;;12.60;99.90;;;;;;5095533;27;20402;-58
2023/05/02 12:22:37;;;;;;;5.63;2.50;;;12.50;99.90;;;;;;5098027;27;20040;-59
2023/05/02 12:25:04;;;;;;;8.95;2.60;;;12.90;99.90;;;;;;5116151;27;20192;-59
2023/05/02 12:27:32;;;;;;;6.35;2.42;;;13.10;99.90;;;;;;5092036;28;20487;-59
2023/05/02 12:29:58;;;;;;;5.93;2.08;;;13.10;99.90;;;;;;5094588;27;20042;-58
2023/05/02 12:32:28;;;;;;;9.00;2.47;;;12.90;99.90;;;;;;5107779;27;20040;-59
2023/05/02 12:34:54;;;;;;;7.03;2.08;;;12.60;99.90;;;;;;5109893;27;20538;-59
2023/05/02 12:37:24;;;;;;;7.30;2.28;;;12.70;99.90;;;;;;5111289;27;20176;-59
2023/05/02 12:39:49;;;;;;;3.75;1.80;;;12.60;99.90;;;;;;5114583;27;20512;-59
2023/05/02 12:42:16;;;;;;;4.32;1.83;;;12.70;99.90;;;;;;5113298;27;20054;-59